createdAt,value
2023-04-05T00:02:04.180Z,20.70
2023-04-05T00:04:36.544Z,21.00
2023-04-05T00:07:08.762Z,20.50
2023-04-05T00:09:40.792Z,19.50
2023-04-05T00:12:12.833Z,19.50
2023-04-05T00:14:44.791Z,19.10
2023-04-05T00:17:17.128Z,18.50
2023-04-05T00:19:57.939Z,19.10
2023-04-05T00:22:31.929Z,19.20
2023-04-05T00:25:06.118Z,22.00
2023-04-05T00:27:38.088Z,19.30
2023-04-05T00:30:11.656Z,20.00
2023-04-05T00:32:43.737Z,22.10
2023-04-05T00:35:15.856Z,21.60
2023-04-05T00:37:47.848Z,22.20
2023-04-05T00:40:20.268Z,23.90
2023-04-05T00:42:52.323Z,25.90
2023-04-05T00:45:24.670Z,27.10
2023-04-05T00:47:57.924Z,27.60
2023-04-05T00:50:31.164Z,24.60
2023-04-05T00:53:03.619Z,25.50
2023-04-05T00:55:37.084Z,25.10
2023-04-05T00:58:10.304Z,24.90
2023-04-05T01:00:43.808Z,26.90
2023-04-05T01:03:17.058Z,26.60
2023-04-05T01:05:54.121Z,26.60
2023-04-05T01:08:34.802Z,26.40
2023-04-05T01:11:10.154Z,29.00
2023-04-05T01:13:42.209Z,28.20
2023-04-05T01:16:17.035Z,28.10
2023-04-05T01:18:49.406Z,30.40
2023-04-05T01:21:46.176Z,30.30
2023-04-05T01:24:32.411Z,28.90
2023-04-05T01:27:08.845Z,27.10
2023-04-05T01:29:49.539Z,29.80
2023-04-05T01:32:31.643Z,29.90
2023-04-05T01:35:10.869Z,30.90
2023-04-05T01:37:46.515Z,28.40
2023-04-05T01:40:19.507Z,28.40
2023-04-05T01:42:52.010Z,30.10
2023-04-05T01:45:24.349Z,26.40
2023-04-05T01:47:56.381Z,27.30
2023-04-05T01:50:28.579Z,27.30
2023-04-05T01:53:03.066Z,25.70
2023-04-05T01:55:35.806Z,24.90
2023-04-05T01:58:07.735Z,23.20
2023-04-05T02:00:40.181Z,26.10
2023-04-05T02:03:14.673Z,23.80
2023-04-05T02:05:46.818Z,23.80
2023-04-05T02:08:19.069Z,23.40
2023-04-05T02:10:56.890Z,22.30
2023-04-05T02:13:28.956Z,22.90
2023-04-05T02:16:01.024Z,23.20
2023-04-05T02:18:33.721Z,23.40
2023-04-05T02:21:08.094Z,22.20
2023-04-05T02:23:42.420Z,23.10
2023-04-05T02:26:14.494Z,22.30
2023-04-05T02:28:47.243Z,22.40
2023-04-05T02:31:19.276Z,20.50
2023-04-05T02:33:51.256Z,20.30
2023-04-05T02:36:23.289Z,20.00
2023-04-05T02:38:55.469Z,20.30
2023-04-05T02:41:27.440Z,20.10
2023-04-05T02:44:00.129Z,20.70
2023-04-05T02:46:33.748Z,20.70
2023-04-05T02:49:06.154Z,19.20
2023-04-05T02:51:38.559Z,19.90
2023-04-05T02:54:15.903Z,19.80
2023-04-05T02:56:50.101Z,19.50
2023-04-05T02:59:22.638Z,17.80
2023-04-05T03:01:57.630Z,20.00
2023-04-05T03:04:34.497Z,18.80
2023-04-05T03:07:08.001Z,20.80
2023-04-05T03:09:41.883Z,19.90
2023-04-05T03:12:14.962Z,18.90
2023-04-05T03:14:48.742Z,20.10
2023-04-05T03:17:23.318Z,19.10
2023-04-05T03:20:08.989Z,19.90
2023-04-05T03:22:42.579Z,20.20
2023-04-05T03:25:16.292Z,19.40
2023-04-05T03:27:52.965Z,20.30
2023-04-05T03:30:26.465Z,20.70
2023-04-05T03:33:04.010Z,20.00
2023-04-05T03:35:44.788Z,18.20
2023-04-05T03:38:19.757Z,21.20
2023-04-05T03:41:14.186Z,22.00
2023-04-05T03:43:46.785Z,26.80
2023-04-05T03:46:18.912Z,27.70
2023-04-05T03:48:50.833Z,26.60
2023-04-05T03:51:23.018Z,25.70
2023-04-05T03:53:55.603Z,25.60
2023-04-05T03:56:28.683Z,26.90
2023-04-05T03:59:02.479Z,30.00
2023-04-05T04:01:34.639Z,29.90
2023-04-05T04:04:06.850Z,29.10
2023-04-05T04:06:38.810Z,26.50
2023-04-05T04:09:11.180Z,25.20
2023-04-05T04:11:43.307Z,20.30
2023-04-05T04:14:15.800Z,18.70
2023-04-05T04:20:11.090Z,18.80
2023-04-05T04:22:55.270Z,19.80
2023-04-05T04:25:46.338Z,19.10
2023-04-05T04:28:43.736Z,18.90
2023-04-05T04:31:33.775Z,20.20
2023-04-05T04:34:26.615Z,25.00
2023-04-05T04:37:17.888Z,23.30
2023-04-05T04:40:32.508Z,28.90
2023-04-05T04:43:44.101Z,23.80
2023-04-05T04:46:30.682Z,21.60
2023-04-05T04:49:17.305Z,19.30
2023-04-05T04:51:53.445Z,19.10
2023-04-05T04:54:28.875Z,18.90
2023-04-05T04:57:01.559Z,16.90
2023-04-05T04:59:34.003Z,18.40
2023-04-05T05:02:08.941Z,19.40
2023-04-05T05:04:41.585Z,21.20
2023-04-05T05:07:13.555Z,23.10
2023-04-05T05:09:49.484Z,34.80
2023-04-05T05:12:22.231Z,39.80
2023-04-05T05:14:54.257Z,34.80
2023-04-05T05:17:28.717Z,39.70
2023-04-05T05:20:01.332Z,43.80
2023-04-05T05:22:33.382Z,40.60
2023-04-05T05:25:06.268Z,31.70
2023-04-05T05:27:38.319Z,29.50
2023-04-05T05:30:12.492Z,27.00
2023-04-05T05:32:44.445Z,24.40
2023-04-05T05:35:16.723Z,24.70
2023-04-05T05:37:48.881Z,27.10
2023-04-05T05:40:21.037Z,31.60
2023-04-05T05:42:53.121Z,32.20
2023-04-05T05:45:25.100Z,32.60
2023-04-05T05:47:58.804Z,32.10
2023-04-05T05:50:33.106Z,43.90
2023-04-05T05:53:05.129Z,37.70
2023-04-05T05:55:37.882Z,41.20
2023-04-05T05:58:09.838Z,37.50
2023-04-05T06:00:42.078Z,34.60
2023-04-05T06:03:15.112Z,28.20
2023-04-05T06:05:54.727Z,28.40
2023-04-05T06:08:28.643Z,29.20
2023-04-05T06:11:01.495Z,28.20
2023-04-05T06:13:33.479Z,35.00
2023-04-05T06:16:05.934Z,31.00
2023-04-05T06:18:37.942Z,32.70
2023-04-05T06:21:10.149Z,30.20
2023-04-05T06:23:43.405Z,31.80
2023-04-05T06:26:27.187Z,31.10
2023-04-05T06:28:59.217Z,30.50
2023-04-05T06:31:35.800Z,32.20
2023-04-05T06:34:07.808Z,34.70
2023-04-05T06:36:39.728Z,32.60
2023-04-05T06:39:11.767Z,36.80
2023-04-05T06:41:44.046Z,41.20
2023-04-05T06:44:16.092Z,44.80
2023-04-05T06:46:48.073Z,54.40
2023-04-05T06:49:20.024Z,39.50
2023-04-05T06:51:51.948Z,47.50
2023-04-05T06:54:25.023Z,35.10
2023-04-05T06:56:58.517Z,40.40
2023-04-05T06:59:32.414Z,55.00
2023-04-05T07:02:04.505Z,36.70
2023-04-05T07:04:37.091Z,33.80
2023-04-05T07:07:09.774Z,35.10
2023-04-05T07:09:43.919Z,31.70
2023-04-05T07:12:15.952Z,31.10
2023-04-05T07:14:47.912Z,29.60
2023-04-05T07:17:19.849Z,27.50
2023-04-05T07:19:52.468Z,28.50
2023-04-05T07:22:25.631Z,26.90
2023-04-05T07:24:57.890Z,33.90
2023-04-05T07:27:33.042Z,30.30
2023-04-05T07:30:05.493Z,29.30
2023-04-05T07:32:38.401Z,19.70
2023-04-05T07:35:11.583Z,17.40
2023-04-05T07:37:43.522Z,22.00
2023-04-05T07:40:16.443Z,20.70
2023-04-05T07:42:48.449Z,25.50
2023-04-05T07:45:20.763Z,39.20
2023-04-05T07:47:52.758Z,23.30
2023-04-05T07:50:25.784Z,26.00
2023-04-05T07:52:57.918Z,14.10
2023-04-05T07:55:30.052Z,11.30
2023-04-05T07:58:02.065Z,8.70
2023-04-05T08:00:34.060Z,10.80
2023-04-05T08:03:06.634Z,11.10
2023-04-05T08:05:38.885Z,10.20
2023-04-05T08:08:11.441Z,9.10
2023-04-05T08:10:43.589Z,11.00
2023-04-05T08:13:16.239Z,18.60
2023-04-05T08:15:48.266Z,9.80
2023-04-05T08:18:20.460Z,11.00
2023-04-05T08:20:55.894Z,6.90
2023-04-05T08:23:28.404Z,7.50
2023-04-05T08:26:00.675Z,17.60
2023-04-05T08:28:33.143Z,10.50
2023-04-05T08:31:05.148Z,8.30
2023-04-05T08:33:37.280Z,10.80
2023-04-05T08:36:11.629Z,7.10
2023-04-05T08:38:44.950Z,5.60
2023-04-05T08:41:21.057Z,10.50
2023-04-05T08:44:02.817Z,10.60
2023-04-05T08:46:35.955Z,14.50
2023-04-05T08:49:09.264Z,19.80
2023-04-05T08:51:41.311Z,65.40
2023-04-05T08:54:14.507Z,14.40
2023-04-05T08:56:50.157Z,18.10
2023-04-05T08:59:23.239Z,7.20
2023-04-05T09:01:58.481Z,14.40
2023-04-05T09:04:33.630Z,7.20
2023-04-05T09:07:07.782Z,7.30
2023-04-05T09:09:42.773Z,9.20
2023-04-05T09:12:15.045Z,7.10
2023-04-05T09:14:48.654Z,8.10
2023-04-05T09:17:22.454Z,10.90
2023-04-05T09:19:54.718Z,6.20
2023-04-05T09:22:26.716Z,8.00
2023-04-05T09:24:58.752Z,13.50
2023-04-05T09:27:31.451Z,8.00
2023-04-05T09:30:22.125Z,14.50
2023-04-05T09:32:56.390Z,6.60
2023-04-05T09:35:29.880Z,17.90
2023-04-05T09:38:02.938Z,24.70
2023-04-05T09:40:46.692Z,13.40
2023-04-05T09:43:39.711Z,6.30
2023-04-05T09:46:29.822Z,19.30
2023-04-05T09:49:02.229Z,7.50
2023-04-05T09:51:39.214Z,6.80
2023-04-05T09:54:16.324Z,9.60
2023-04-05T09:56:57.766Z,7.40
2023-04-05T09:59:30.506Z,53.70
2023-04-05T10:02:04.017Z,9.10
2023-04-05T10:04:44.098Z,9.90
2023-04-05T10:07:17.372Z,6.40
2023-04-05T10:09:51.995Z,5.80
2023-04-05T10:12:29.829Z,13.80
2023-04-05T10:15:01.966Z,7.60
2023-04-05T10:17:40.498Z,6.70
2023-04-05T10:20:17.922Z,8.80
2023-04-05T10:23:02.010Z,6.00
2023-04-05T10:25:50.390Z,5.80
2023-04-05T10:28:32.167Z,4.40
2023-04-05T10:31:11.322Z,4.50
2023-04-05T10:33:47.830Z,5.70
2023-04-05T10:36:31.539Z,7.60
2023-04-05T10:39:11.523Z,10.30
2023-04-05T10:41:48.657Z,13.70
2023-04-05T10:44:26.106Z,7.30
2023-04-05T10:46:59.513Z,8.00
2023-04-05T10:49:44.358Z,5.10
2023-04-05T10:52:17.722Z,5.70
2023-04-05T10:54:50.865Z,6.30
2023-04-05T10:57:24.306Z,5.00
2023-04-05T10:59:57.163Z,6.00
2023-04-05T11:02:31.402Z,9.50
2023-04-05T11:05:06.462Z,25.20
2023-04-05T11:07:50.595Z,6.50
2023-04-05T11:10:24.122Z,7.70
2023-04-05T11:13:12.271Z,5.30
2023-04-05T11:15:44.352Z,4.20
2023-04-05T11:18:24.038Z,4.70
2023-04-05T11:21:07.167Z,10.80
2023-04-05T11:24:07.945Z,6.60
2023-04-05T11:26:57.713Z,5.70
2023-04-05T11:29:52.068Z,8.60
2023-04-05T11:32:25.073Z,11.80
2023-04-05T11:35:07.596Z,9.60
2023-04-05T11:37:56.241Z,6.80
2023-04-05T11:40:30.560Z,6.50
2023-04-05T11:43:06.066Z,4.70
2023-04-05T11:45:39.774Z,9.80
2023-04-05T11:48:14.273Z,6.20
2023-04-05T11:50:48.533Z,4.40
2023-04-05T11:53:21.509Z,10.40
2023-04-05T11:55:55.457Z,9.90
2023-04-05T11:58:29.758Z,5.70
2023-04-05T12:01:03.131Z,8.40
2023-04-05T12:03:35.839Z,6.40
2023-04-05T12:06:09.101Z,7.10
2023-04-05T12:08:50.472Z,7.20
2023-04-05T12:11:28.401Z,6.80
2023-04-05T12:14:01.878Z,8.60
2023-04-05T12:16:34.217Z,7.80
2023-04-05T12:19:07.097Z,5.70
2023-04-05T12:21:39.538Z,5.00
2023-04-05T12:24:11.854Z,5.50
2023-04-05T12:26:44.160Z,5.00
2023-04-05T12:29:16.405Z,5.00
2023-04-05T12:31:53.349Z,5.20
2023-04-05T12:34:28.762Z,5.80
2023-04-05T12:37:03.566Z,5.60
2023-04-05T12:39:36.413Z,5.60
2023-04-05T12:42:08.508Z,22.50
2023-04-05T12:44:40.541Z,9.40
2023-04-05T12:47:15.336Z,13.00
2023-04-05T12:49:47.940Z,6.30
2023-04-05T12:52:23.483Z,7.40
2023-04-05T12:54:58.070Z,7.20
2023-04-05T12:57:34.167Z,9.20
2023-04-05T13:00:07.998Z,5.80
2023-04-05T13:02:40.171Z,5.80
2023-04-05T13:05:12.754Z,6.00
2023-04-05T13:07:44.847Z,5.20
2023-04-05T13:10:17.431Z,8.10
2023-04-05T13:12:49.770Z,6.10
2023-04-05T13:15:22.225Z,6.90
2023-04-05T13:17:55.097Z,5.50
2023-04-05T13:20:27.185Z,6.80
2023-04-05T13:22:59.437Z,7.40
2023-04-05T13:25:31.399Z,5.80
2023-04-05T13:28:03.328Z,6.70
2023-04-05T13:30:35.807Z,11.60
2023-04-05T13:33:07.963Z,8.80
2023-04-05T13:35:40.405Z,11.30
2023-04-05T13:38:12.638Z,9.30
2023-04-05T13:40:44.962Z,45.10
2023-04-05T13:43:17.125Z,18.40
2023-04-05T13:45:49.199Z,19.50
2023-04-05T13:48:21.224Z,6.50
2023-04-05T13:50:53.275Z,6.90
2023-04-05T13:53:26.670Z,10.40
2023-04-05T13:56:00.509Z,7.50
2023-04-05T13:58:32.387Z,7.80
2023-04-05T14:01:05.845Z,6.00
2023-04-05T14:03:38.097Z,6.90
2023-04-05T14:06:13.433Z,7.40
2023-04-05T14:08:45.683Z,9.50
2023-04-05T14:11:18.969Z,9.20
2023-04-05T14:13:51.376Z,5.70
2023-04-05T14:16:23.621Z,7.10
2023-04-05T14:18:58.389Z,6.50
2023-04-05T14:21:30.549Z,5.10
2023-04-05T14:24:02.737Z,5.00
2023-04-05T14:26:34.935Z,5.80
2023-04-05T14:29:07.137Z,8.00
2023-04-05T14:31:39.494Z,9.80
2023-04-05T14:34:11.784Z,5.40
2023-04-05T14:36:44.143Z,8.00
2023-04-05T14:39:16.614Z,8.20
2023-04-05T14:41:52.765Z,6.50
2023-04-05T14:44:26.891Z,6.30
2023-04-05T14:46:59.096Z,12.90
2023-04-05T14:49:31.572Z,11.70
2023-04-05T14:52:03.712Z,5.80
2023-04-05T14:54:36.030Z,16.80
2023-04-05T14:57:09.411Z,6.00
2023-04-05T14:59:41.548Z,10.60
2023-04-05T15:02:14.593Z,12.30
2023-04-05T15:04:47.119Z,7.70
2023-04-05T15:07:19.378Z,8.10
2023-04-05T15:09:51.652Z,7.20
2023-04-05T15:12:24.232Z,5.80
2023-04-05T15:14:56.728Z,7.90
2023-04-05T15:17:28.983Z,7.30
2023-04-05T15:20:01.151Z,8.00
2023-04-05T15:22:33.817Z,11.00
2023-04-05T15:25:10.246Z,9.00
2023-04-05T15:27:42.391Z,15.40
2023-04-05T15:30:15.694Z,25.30
2023-04-05T15:32:48.052Z,18.40
2023-04-05T15:35:20.448Z,7.30
2023-04-05T15:37:52.673Z,7.50
2023-04-05T15:40:24.725Z,37.20
2023-04-05T15:42:57.838Z,50.30
2023-04-05T15:45:30.036Z,128.70
2023-04-05T15:48:02.337Z,20.30
2023-04-05T15:50:34.986Z,13.00
2023-04-05T15:53:07.752Z,12.00
2023-04-05T15:55:40.072Z,11.20
2023-04-05T15:58:12.266Z,16.20
2023-04-05T16:00:44.731Z,11.60
2023-04-05T16:03:16.872Z,11.40
2023-04-05T16:05:49.076Z,7.50
2023-04-05T16:08:21.322Z,7.30
2023-04-05T16:10:53.478Z,6.50
2023-04-05T16:13:26.535Z,6.20
2023-04-05T16:15:58.684Z,5.60
2023-04-05T16:18:31.797Z,6.40
2023-04-05T16:21:05.264Z,8.50
2023-04-05T16:23:39.747Z,7.80
2023-04-05T16:26:15.158Z,6.40
2023-04-05T16:28:50.574Z,5.70
2023-04-05T16:31:22.986Z,6.70
2023-04-05T16:33:55.392Z,142.10
2023-04-05T16:36:27.779Z,22.40
2023-04-05T16:39:00.292Z,10.80
2023-04-05T16:41:33.016Z,8.40
2023-04-05T16:44:05.768Z,8.10
2023-04-05T16:46:38.259Z,18.10
2023-04-05T16:49:10.667Z,8.90
2023-04-05T16:51:46.559Z,10.90
2023-04-05T16:54:18.860Z,10.30
2023-04-05T16:56:51.225Z,9.20
2023-04-05T16:59:23.447Z,10.70
2023-04-05T17:01:59.835Z,21.10
2023-04-05T17:04:32.483Z,19.90
2023-04-05T17:07:04.709Z,19.00
2023-04-05T17:09:37.067Z,10.40
2023-04-05T17:12:11.884Z,14.60
2023-04-05T17:14:44.958Z,38.10
2023-04-05T17:17:17.543Z,16.00
2023-04-05T17:19:50.336Z,12.80
2023-04-05T17:22:23.100Z,16.90
2023-04-05T17:24:55.603Z,14.70
2023-04-05T17:27:28.098Z,16.80
2023-04-05T17:30:01.257Z,24.10
2023-04-05T17:32:34.846Z,25.70
2023-04-05T17:35:08.421Z,23.10
2023-04-05T17:37:41.100Z,26.00
2023-04-05T17:40:18.703Z,19.70
2023-04-05T17:42:53.707Z,18.70
2023-04-05T17:45:26.008Z,17.60
2023-04-05T17:47:58.316Z,15.40
2023-04-05T17:50:30.601Z,15.80
2023-04-05T17:53:02.744Z,16.50
2023-04-05T17:55:36.352Z,15.00
2023-04-05T17:58:09.427Z,13.10
2023-04-05T18:00:41.640Z,13.10
2023-04-05T18:03:14.526Z,12.30
2023-04-05T18:05:50.288Z,10.20
2023-04-05T18:08:23.901Z,13.30
2023-04-05T18:11:00.047Z,15.10
2023-04-05T18:13:32.843Z,18.10
2023-04-05T18:16:05.560Z,20.30
2023-04-05T18:18:38.394Z,22.40
2023-04-05T18:21:13.234Z,25.00
2023-04-05T18:23:45.602Z,26.60
2023-04-05T18:26:18.506Z,32.00
2023-04-05T18:28:55.141Z,41.90
2023-04-05T18:31:27.659Z,44.40
2023-04-05T18:34:01.680Z,43.50
2023-04-05T18:36:36.083Z,49.70
2023-04-05T18:39:09.313Z,52.10
2023-04-05T18:41:41.926Z,50.80
2023-04-05T18:44:14.346Z,50.90
2023-04-05T18:46:47.094Z,48.80
2023-04-05T18:49:19.474Z,46.70
2023-04-05T18:51:52.065Z,46.60
2023-04-05T18:54:24.643Z,44.40
2023-04-05T18:56:56.820Z,42.30
2023-04-05T18:59:29.725Z,40.50
2023-04-05T19:02:04.697Z,40.20
2023-04-05T19:04:37.401Z,35.90
2023-04-05T19:07:09.890Z,34.20
2023-04-05T19:09:43.067Z,30.60
2023-04-05T19:12:15.475Z,31.10
2023-04-05T19:14:47.984Z,26.40
2023-04-05T19:17:20.923Z,25.30
2023-04-05T19:19:53.184Z,24.10
2023-04-05T19:22:27.862Z,23.00
2023-04-05T19:25:01.258Z,22.70
2023-04-05T19:27:34.653Z,21.20
2023-04-05T19:30:08.745Z,21.00
2023-04-05T19:32:41.069Z,19.10
2023-04-05T19:35:13.853Z,19.60
2023-04-05T19:37:46.225Z,19.10
2023-04-05T19:40:19.767Z,21.00
2023-04-05T19:42:52.465Z,19.70
2023-04-05T19:45:27.783Z,20.30
2023-04-05T19:48:02.307Z,19.20
2023-04-05T19:50:49.137Z,18.00
2023-04-05T19:53:49.416Z,18.50
2023-04-05T19:56:28.452Z,22.00
2023-04-05T19:59:03.748Z,16.10
2023-04-05T20:01:38.418Z,17.70
2023-04-05T20:04:14.630Z,21.30
2023-04-05T20:06:53.289Z,23.70
2023-04-05T20:09:28.922Z,21.80
2023-04-05T20:12:02.637Z,24.40
2023-04-05T20:14:43.311Z,27.50
2023-04-05T20:20:00.948Z,27.70
2023-04-05T20:22:35.034Z,32.10
2023-04-05T20:25:35.084Z,32.60
2023-04-05T20:28:23.262Z,30.90
2023-04-05T20:30:55.591Z,32.70
2023-04-05T20:33:45.921Z,33.00
2023-04-05T20:36:20.705Z,36.90
2023-04-05T20:38:53.062Z,33.60
2023-04-05T20:41:25.230Z,32.50
2023-04-05T20:43:57.529Z,37.30
2023-04-05T20:46:29.930Z,30.30
2023-04-05T20:49:05.796Z,31.40
2023-04-05T20:51:41.926Z,32.10
2023-04-05T20:54:15.012Z,31.40
2023-04-05T20:56:47.234Z,33.60
2023-04-05T20:59:19.530Z,34.80
2023-04-05T21:01:51.767Z,38.90
2023-04-05T21:04:24.122Z,34.70
2023-04-05T21:06:56.577Z,37.60
2023-04-05T21:09:28.905Z,40.10
2023-04-05T21:12:01.324Z,32.50
2023-04-05T21:14:33.383Z,39.10
2023-04-05T21:17:05.567Z,31.40
2023-04-05T21:19:37.754Z,37.30
2023-04-05T21:22:09.937Z,40.60
2023-04-05T21:24:42.278Z,38.50
2023-04-05T21:27:14.573Z,36.80
2023-04-05T21:29:46.992Z,38.50
2023-04-05T21:32:21.588Z,35.50
2023-04-05T21:34:53.704Z,38.90
2023-04-05T21:37:25.783Z,34.30
2023-04-05T21:39:59.793Z,33.20
2023-04-05T21:42:32.434Z,35.10
2023-04-05T21:45:04.809Z,37.30
2023-04-05T21:47:37.042Z,39.70
2023-04-05T21:50:10.867Z,34.90
2023-04-05T21:52:43.171Z,34.40
2023-04-05T21:55:15.550Z,34.70
2023-04-05T21:57:47.929Z,36.50
2023-04-05T22:00:20.881Z,36.90
2023-04-05T22:02:53.076Z,35.50
2023-04-05T22:05:36.373Z,36.50
2023-04-05T22:08:10.736Z,35.00
2023-04-05T22:10:44.363Z,36.60
2023-04-05T22:13:16.555Z,41.70
2023-04-05T22:15:49.245Z,40.60
2023-04-05T22:18:21.301Z,44.60
2023-04-05T22:20:53.409Z,45.40
2023-04-05T22:23:25.623Z,43.30
2023-04-05T22:25:57.673Z,45.50
2023-04-05T22:28:29.784Z,44.40
2023-04-05T22:31:01.874Z,46.80
2023-04-05T22:33:34.090Z,48.90
2023-04-05T22:36:06.976Z,46.60
2023-04-05T22:38:41.262Z,46.90
2023-04-05T22:41:13.494Z,49.70
2023-04-05T22:43:45.572Z,46.80
2023-04-05T22:46:17.697Z,48.80
2023-04-05T22:48:49.732Z,54.80
2023-04-05T22:51:21.867Z,53.80
2023-04-05T22:53:53.917Z,51.20
2023-04-05T22:56:28.909Z,50.30
2023-04-05T22:59:01.488Z,47.90
2023-04-05T23:01:33.673Z,53.00
2023-04-05T23:04:05.902Z,51.70
2023-04-05T23:06:38.089Z,54.50
2023-04-05T23:09:10.439Z,57.70
2023-04-05T23:11:42.964Z,56.30
2023-04-05T23:14:15.529Z,50.90
2023-04-05T23:16:47.629Z,48.70
2023-04-05T23:19:19.933Z,49.50
2023-04-05T23:21:52.319Z,47.40
2023-04-05T23:24:24.513Z,48.60
2023-04-05T23:26:56.942Z,48.60
2023-04-05T23:29:29.178Z,50.50
2023-04-05T23:32:01.196Z,51.60
2023-04-05T23:34:33.277Z,48.90
2023-04-05T23:37:05.346Z,52.00
2023-04-05T23:39:37.733Z,50.70
2023-04-05T23:42:10.264Z,49.20
2023-04-05T23:44:42.385Z,48.00
2023-04-05T23:47:14.525Z,48.00
2023-04-05T23:49:46.586Z,48.10
2023-04-05T23:52:18.655Z,45.20
2023-04-05T23:54:50.774Z,46.10
2023-04-05T23:57:22.913Z,46.40
2023-04-05T23:59:57.214Z,45.60
